sensor_id;sensor_type;location;lat;lon;timestamp;P1;durP1;ratioP1;P2;durP2;ratioP2
47523;SDS011;33253;42.144;25.884;2022-08-19T00:01:35;12.02;;;8.65;;
47523;SDS011;33253;42.144;25.884;2022-08-19T00:04:04;18.58;;;8.73;;
47523;SDS011;33253;42.144;25.884;2022-08-19T00:06:31;15.52;;;8.18;;
47523;SDS011;33253;42.144;25.884;2022-08-19T00:08:57;21.73;;;8.90;;
47523;SDS011;33253;42.144;25.884;2022-08-19T00:11:25;19.75;;;9.35;;
47523;SDS011;33253;42.144;25.884;2022-08-19T00:13:55;16.60;;;8.80;;
47523;SDS011;33253;42.144;25.884;2022-08-19T00:16:21;16.65;;;8.82;;
47523;SDS011;33253;42.144;25.884;2022-08-19T00:18:48;22.65;;;9.48;;
47523;SDS011;33253;42.144;25.884;2022-08-19T00:21:13;17.35;;;9.55;;
47523;SDS011;33253;42.144;25.884;2022-08-19T00:23:39;20.75;;;9.32;;
47523;SDS011;33253;42.144;25.884;2022-08-19T00:26:06;22.13;;;9.00;;
47523;SDS011;33253;42.144;25.884;2022-08-19T00:28:32;17.38;;;9.15;;
47523;SDS011;33253;42.144;25.884;2022-08-19T00:31:00;26.35;;;10.13;;
47523;SDS011;33253;42.144;25.884;2022-08-19T00:33:28;21.85;;;8.95;;
47523;SDS011;33253;42.144;25.884;2022-08-19T00:35:57;17.98;;;8.90;;
47523;SDS011;33253;42.144;25.884;2022-08-19T00:38:24;22.33;;;9.65;;
47523;SDS011;33253;42.144;25.884;2022-08-19T00:40:49;22.88;;;10.30;;
47523;SDS011;33253;42.144;25.884;2022-08-19T00:43:18;18.48;;;10.07;;
47523;SDS011;33253;42.144;25.884;2022-08-19T00:45:46;19.98;;;9.95;;
47523;SDS011;33253;42.144;25.884;2022-08-19T00:48:12;30.27;;;9.90;;
47523;SDS011;33253;42.144;25.884;2022-08-19T00:50:40;27.92;;;9.98;;
47523;SDS011;33253;42.144;25.884;2022-08-19T00:53:08;29.77;;;11.10;;
47523;SDS011;33253;42.144;25.884;2022-08-19T00:55:40;25.73;;;9.85;;
47523;SDS011;33253;42.144;25.884;2022-08-19T00:58:10;23.13;;;10.25;;
47523;SDS011;33253;42.144;25.884;2022-08-19T01:00:38;23.27;;;9.50;;
47523;SDS011;33253;42.144;25.884;2022-08-19T01:03:08;22.08;;;9.88;;
47523;SDS011;33253;42.144;25.884;2022-08-19T01:05:36;22.85;;;10.43;;
47523;SDS011;33253;42.144;25.884;2022-08-19T01:08:03;20.70;;;9.18;;
47523;SDS011;33253;42.144;25.884;2022-08-19T01:10:31;17.23;;;9.30;;
47523;SDS011;33253;42.144;25.884;2022-08-19T01:13:01;17.63;;;9.52;;
47523;SDS011;33253;42.144;25.884;2022-08-19T01:15:39;17.50;;;9.90;;
47523;SDS011;33253;42.144;25.884;2022-08-19T01:18:09;12.57;;;8.57;;
47523;SDS011;33253;42.144;25.884;2022-08-19T01:20:37;17.02;;;9.05;;
47523;SDS011;33253;42.144;25.884;2022-08-19T01:23:03;14.13;;;9.40;;
47523;SDS011;33253;42.144;25.884;2022-08-19T01:25:31;12.90;;;8.57;;
47523;SDS011;33253;42.144;25.884;2022-08-19T01:28:01;15.18;;;9.45;;
47523;SDS011;33253;42.144;25.884;2022-08-19T01:30:29;19.92;;;9.52;;
47523;SDS011;33253;42.144;25.884;2022-08-19T01:32:59;17.45;;;9.88;;
47523;SDS011;33253;42.144;25.884;2022-08-19T01:35:26;17.02;;;9.60;;
47523;SDS011;33253;42.144;25.884;2022-08-19T01:37:55;22.45;;;10.00;;
47523;SDS011;33253;42.144;25.884;2022-08-19T01:40:24;21.00;;;10.38;;
47523;SDS011;33253;42.144;25.884;2022-08-19T01:42:52;18.50;;;10.38;;
47523;SDS011;33253;42.144;25.884;2022-08-19T01:45:19;16.20;;;9.75;;
47523;SDS011;33253;42.144;25.884;2022-08-19T01:47:46;21.17;;;9.23;;
47523;SDS011;33253;42.144;25.884;2022-08-19T01:50:12;16.38;;;10.27;;
47523;SDS011;33253;42.144;25.884;2022-08-19T01:52:39;13.40;;;8.77;;
47523;SDS011;33253;42.144;25.884;2022-08-19T01:55:06;13.68;;;9.65;;
47523;SDS011;33253;42.144;25.884;2022-08-19T01:57:33;12.63;;;9.17;;
47523;SDS011;33253;42.144;25.884;2022-08-19T01:59:59;13.13;;;9.90;;
47523;SDS011;33253;42.144;25.884;2022-08-19T02:02:27;18.83;;;10.32;;
47523;SDS011;33253;42.144;25.884;2022-08-19T02:04:52;11.85;;;9.95;;
47523;SDS011;33253;42.144;25.884;2022-08-19T02:07:20;15.02;;;9.32;;
47523;SDS011;33253;42.144;25.884;2022-08-19T02:09:46;12.32;;;9.40;;
47523;SDS011;33253;42.144;25.884;2022-08-19T02:12:13;11.98;;;9.88;;
47523;SDS011;33253;42.144;25.884;2022-08-19T02:14:38;16.10;;;9.93;;
47523;SDS011;33253;42.144;25.884;2022-08-19T02:17:04;12.80;;;9.23;;
47523;SDS011;33253;42.144;25.884;2022-08-19T02:19:29;14.23;;;9.77;;
47523;SDS011;33253;42.144;25.884;2022-08-19T02:21:57;11.18;;;9.48;;
47523;SDS011;33253;42.144;25.884;2022-08-19T02:24:23;13.35;;;9.68;;
47523;SDS011;33253;42.144;25.884;2022-08-19T02:26:49;13.27;;;9.80;;
47523;SDS011;33253;42.144;25.884;2022-08-19T02:29:14;11.02;;;9.52;;
47523;SDS011;33253;42.144;25.884;2022-08-19T02:31:40;14.50;;;9.63;;
47523;SDS011;33253;42.144;25.884;2022-08-19T02:34:06;11.82;;;9.77;;
47523;SDS011;33253;42.144;25.884;2022-08-19T02:36:31;13.55;;;10.15;;
47523;SDS011;33253;42.144;25.884;2022-08-19T02:38:57;15.50;;;9.93;;
47523;SDS011;33253;42.144;25.884;2022-08-19T02:41:24;14.65;;;10.70;;
47523;SDS011;33253;42.144;25.884;2022-08-19T02:43:51;13.18;;;10.30;;
47523;SDS011;33253;42.144;25.884;2022-08-19T02:46:27;11.10;;;10.00;;
47523;SDS011;33253;42.144;25.884;2022-08-19T02:48:55;14.02;;;10.35;;
47523;SDS011;33253;42.144;25.884;2022-08-19T02:51:26;11.60;;;9.90;;
47523;SDS011;33253;42.144;25.884;2022-08-19T02:53:53;12.88;;;10.48;;
47523;SDS011;33253;42.144;25.884;2022-08-19T02:56:20;14.65;;;10.35;;
47523;SDS011;33253;42.144;25.884;2022-08-19T02:58:46;10.90;;;9.65;;
47523;SDS011;33253;42.144;25.884;2022-08-19T03:01:19;11.32;;;10.23;;
47523;SDS011;33253;42.144;25.884;2022-08-19T03:03:47;11.32;;;10.02;;
47523;SDS011;33253;42.144;25.884;2022-08-19T03:06:13;12.38;;;9.75;;
47523;SDS011;33253;42.144;25.884;2022-08-19T03:08:41;13.50;;;9.70;;
47523;SDS011;33253;42.144;25.884;2022-08-19T03:11:18;12.02;;;10.27;;
47523;SDS011;33253;42.144;25.884;2022-08-19T03:13:46;15.48;;;10.85;;
47523;SDS011;33253;42.144;25.884;2022-08-19T03:16:15;12.43;;;10.43;;
47523;SDS011;33253;42.144;25.884;2022-08-19T03:18:42;12.20;;;9.90;;
47523;SDS011;33253;42.144;25.884;2022-08-19T03:21:08;14.93;;;10.43;;
47523;SDS011;33253;42.144;25.884;2022-08-19T03:23:34;11.05;;;9.80;;
47523;SDS011;33253;42.144;25.884;2022-08-19T03:26:04;12.32;;;10.50;;
47523;SDS011;33253;42.144;25.884;2022-08-19T03:28:30;14.90;;;10.75;;
47523;SDS011;33253;42.144;25.884;2022-08-19T03:30:58;21.05;;;10.95;;
47523;SDS011;33253;42.144;25.884;2022-08-19T03:33:29;18.92;;;11.57;;
47523;SDS011;33253;42.144;25.884;2022-08-19T03:36:05;13.55;;;10.77;;
47523;SDS011;33253;42.144;25.884;2022-08-19T03:38:47;20.77;;;11.48;;
47523;SDS011;33253;42.144;25.884;2022-08-19T03:41:20;24.25;;;11.50;;
47523;SDS011;33253;42.144;25.884;2022-08-19T03:43:48;19.20;;;11.18;;
47523;SDS011;33253;42.144;25.884;2022-08-19T03:46:27;13.15;;;10.50;;
47523;SDS011;33253;42.144;25.884;2022-08-19T03:48:56;17.15;;;10.98;;
47523;SDS011;33253;42.144;25.884;2022-08-19T03:51:24;12.32;;;10.95;;
47523;SDS011;33253;42.144;25.884;2022-08-19T03:53:50;13.50;;;10.88;;
47523;SDS011;33253;42.144;25.884;2022-08-19T03:56:17;15.80;;;10.93;;
47523;SDS011;33253;42.144;25.884;2022-08-19T03:58:43;15.75;;;11.73;;
47523;SDS011;33253;42.144;25.884;2022-08-19T04:01:10;26.17;;;11.70;;
47523;SDS011;33253;42.144;25.884;2022-08-19T04:03:38;20.05;;;11.55;;
47523;SDS011;33253;42.144;25.884;2022-08-19T04:06:11;18.98;;;10.63;;
47523;SDS011;33253;42.144;25.884;2022-08-19T04:08:49;16.85;;;10.93;;
47523;SDS011;33253;42.144;25.884;2022-08-19T04:11:17;18.65;;;11.27;;
47523;SDS011;33253;42.144;25.884;2022-08-19T04:13:48;23.25;;;11.63;;
47523;SDS011;33253;42.144;25.884;2022-08-19T04:16:16;18.17;;;11.57;;
47523;SDS011;33253;42.144;25.884;2022-08-19T04:18:42;23.35;;;12.35;;
47523;SDS011;33253;42.144;25.884;2022-08-19T04:21:08;21.58;;;11.98;;
47523;SDS011;33253;42.144;25.884;2022-08-19T04:23:40;15.57;;;12.68;;
47523;SDS011;33253;42.144;25.884;2022-08-19T04:26:05;18.77;;;13.50;;
47523;SDS011;33253;42.144;25.884;2022-08-19T04:28:31;17.05;;;12.73;;
47523;SDS011;33253;42.144;25.884;2022-08-19T04:30:56;15.60;;;11.88;;
47523;SDS011;33253;42.144;25.884;2022-08-19T04:33:23;15.15;;;11.32;;
47523;SDS011;33253;42.144;25.884;2022-08-19T04:35:50;29.50;;;12.05;;
47523;SDS011;33253;42.144;25.884;2022-08-19T04:38:18;21.17;;;11.95;;
47523;SDS011;33253;42.144;25.884;2022-08-19T04:40:47;16.77;;;10.90;;
47523;SDS011;33253;42.144;25.884;2022-08-19T04:43:34;14.90;;;11.20;;
47523;SDS011;33253;42.144;25.884;2022-08-19T04:46:06;14.77;;;10.48;;
47523;SDS011;33253;42.144;25.884;2022-08-19T04:48:34;14.10;;;9.98;;
47523;SDS011;33253;42.144;25.884;2022-08-19T04:51:00;16.35;;;10.27;;
47523;SDS011;33253;42.144;25.884;2022-08-19T04:53:26;15.90;;;10.35;;
47523;SDS011;33253;42.144;25.884;2022-08-19T04:55:54;16.08;;;10.80;;
47523;SDS011;33253;42.144;25.884;2022-08-19T04:58:32;15.65;;;11.50;;
47523;SDS011;33253;42.144;25.884;2022-08-19T05:00:59;19.95;;;11.15;;
47523;SDS011;33253;42.144;25.884;2022-08-19T05:03:24;17.05;;;11.90;;
47523;SDS011;33253;42.144;25.884;2022-08-19T05:05:51;19.05;;;11.00;;
47523;SDS011;33253;42.144;25.884;2022-08-19T05:08:18;24.35;;;11.77;;
47523;SDS011;33253;42.144;25.884;2022-08-19T05:10:46;18.77;;;11.23;;
47523;SDS011;33253;42.144;25.884;2022-08-19T05:13:13;16.98;;;12.45;;
47523;SDS011;33253;42.144;25.884;2022-08-19T05:15:39;17.30;;;12.38;;
47523;SDS011;33253;42.144;25.884;2022-08-19T05:18:05;20.67;;;12.18;;
47523;SDS011;33253;42.144;25.884;2022-08-19T05:20:49;25.60;;;11.52;;
47523;SDS011;33253;42.144;25.884;2022-08-19T05:23:34;17.38;;;12.68;;
47523;SDS011;33253;42.144;25.884;2022-08-19T05:26:00;23.65;;;12.57;;
47523;SDS011;33253;42.144;25.884;2022-08-19T05:28:26;19.17;;;12.23;;
47523;SDS011;33253;42.144;25.884;2022-08-19T05:30:52;21.80;;;11.93;;
47523;SDS011;33253;42.144;25.884;2022-08-19T05:33:20;19.83;;;12.45;;
47523;SDS011;33253;42.144;25.884;2022-08-19T05:35:46;20.80;;;13.20;;
47523;SDS011;33253;42.144;25.884;2022-08-19T05:38:14;18.85;;;10.75;;
47523;SDS011;33253;42.144;25.884;2022-08-19T05:40:40;16.58;;;11.38;;
47523;SDS011;33253;42.144;25.884;2022-08-19T05:43:07;15.57;;;11.23;;
47523;SDS011;33253;42.144;25.884;2022-08-19T05:45:33;17.33;;;10.80;;
47523;SDS011;33253;42.144;25.884;2022-08-19T05:48:03;13.07;;;10.80;;
47523;SDS011;33253;42.144;25.884;2022-08-19T05:50:29;15.55;;;10.65;;
47523;SDS011;33253;42.144;25.884;2022-08-19T05:52:55;19.63;;;11.27;;
47523;SDS011;33253;42.144;25.884;2022-08-19T05:55:20;19.35;;;11.52;;
47523;SDS011;33253;42.144;25.884;2022-08-19T05:57:47;19.98;;;11.48;;
47523;SDS011;33253;42.144;25.884;2022-08-19T06:00:13;24.10;;;10.73;;
47523;SDS011;33253;42.144;25.884;2022-08-19T06:02:39;16.48;;;10.65;;
47523;SDS011;33253;42.144;25.884;2022-08-19T06:05:06;15.43;;;10.77;;
47523;SDS011;33253;42.144;25.884;2022-08-19T06:07:34;19.98;;;11.10;;
47523;SDS011;33253;42.144;25.884;2022-08-19T06:10:02;22.48;;;12.10;;
47523;SDS011;33253;42.144;25.884;2022-08-19T06:12:32;18.10;;;11.82;;
47523;SDS011;33253;42.144;25.884;2022-08-19T06:15:09;17.65;;;11.35;;
47523;SDS011;33253;42.144;25.884;2022-08-19T06:17:37;18.23;;;11.68;;
47523;SDS011;33253;42.144;25.884;2022-08-19T06:20:04;20.48;;;11.48;;
47523;SDS011;33253;42.144;25.884;2022-08-19T06:22:36;23.60;;;10.70;;
47523;SDS011;33253;42.144;25.884;2022-08-19T06:25:05;14.13;;;9.73;;
47523;SDS011;33253;42.144;25.884;2022-08-19T06:27:31;17.85;;;10.80;;
47523;SDS011;33253;42.144;25.884;2022-08-19T06:29:58;13.32;;;9.27;;
47523;SDS011;33253;42.144;25.884;2022-08-19T06:32:24;13.48;;;9.70;;
47523;SDS011;33253;42.144;25.884;2022-08-19T06:34:49;10.65;;;9.55;;
47523;SDS011;33253;42.144;25.884;2022-08-19T06:37:14;13.40;;;9.32;;
47523;SDS011;33253;42.144;25.884;2022-08-19T06:39:42;13.82;;;8.95;;
47523;SDS011;33253;42.144;25.884;2022-08-19T06:42:08;12.52;;;9.38;;
47523;SDS011;33253;42.144;25.884;2022-08-19T06:44:37;10.52;;;8.75;;
47523;SDS011;33253;42.144;25.884;2022-08-19T06:47:06;10.80;;;9.40;;
47523;SDS011;33253;42.144;25.884;2022-08-19T06:49:33;13.03;;;9.00;;
47523;SDS011;33253;42.144;25.884;2022-08-19T06:52:00;16.05;;;8.73;;
47523;SDS011;33253;42.144;25.884;2022-08-19T06:54:26;11.13;;;8.73;;
47523;SDS011;33253;42.144;25.884;2022-08-19T06:56:54;13.25;;;9.10;;
47523;SDS011;33253;42.144;25.884;2022-08-19T06:59:22;10.40;;;8.05;;
47523;SDS011;33253;42.144;25.884;2022-08-19T07:01:53;33.03;;;16.67;;
47523;SDS011;33253;42.144;25.884;2022-08-19T07:04:21;12.10;;;9.32;;
47523;SDS011;33253;42.144;25.884;2022-08-19T07:06:49;16.97;;;9.60;;
47523;SDS011;33253;42.144;25.884;2022-08-19T07:09:16;21.40;;;9.00;;
47523;SDS011;33253;42.144;25.884;2022-08-19T07:11:44;12.77;;;9.55;;
47523;SDS011;33253;42.144;25.884;2022-08-19T07:14:14;13.60;;;9.20;;
47523;SDS011;33253;42.144;25.884;2022-08-19T07:16:42;19.08;;;9.43;;
47523;SDS011;33253;42.144;25.884;2022-08-19T07:19:10;10.98;;;8.65;;
47523;SDS011;33253;42.144;25.884;2022-08-19T07:21:37;13.50;;;9.15;;
47523;SDS011;33253;42.144;25.884;2022-08-19T07:24:03;16.02;;;8.80;;
47523;SDS011;33253;42.144;25.884;2022-08-19T07:26:31;13.20;;;8.98;;
47523;SDS011;33253;42.144;25.884;2022-08-19T07:28:58;10.38;;;8.68;;
47523;SDS011;33253;42.144;25.884;2022-08-19T07:31:27;12.40;;;8.60;;
47523;SDS011;33253;42.144;25.884;2022-08-19T07:33:53;13.02;;;8.73;;
47523;SDS011;33253;42.144;25.884;2022-08-19T07:36:25;11.75;;;8.68;;
47523;SDS011;33253;42.144;25.884;2022-08-19T07:38:56;8.93;;;7.72;;
47523;SDS011;33253;42.144;25.884;2022-08-19T07:41:22;13.68;;;8.88;;
47523;SDS011;33253;42.144;25.884;2022-08-19T07:43:50;9.70;;;8.33;;
47523;SDS011;33253;42.144;25.884;2022-08-19T07:46:17;14.25;;;8.52;;
47523;SDS011;33253;42.144;25.884;2022-08-19T07:48:45;13.53;;;9.10;;
47523;SDS011;33253;42.144;25.884;2022-08-19T07:51:13;10.70;;;9.38;;
47523;SDS011;33253;42.144;25.884;2022-08-19T07:53:40;13.40;;;9.20;;
47523;SDS011;33253;42.144;25.884;2022-08-19T07:56:05;11.93;;;8.90;;
47523;SDS011;33253;42.144;25.884;2022-08-19T07:58:32;13.88;;;8.98;;
47523;SDS011;33253;42.144;25.884;2022-08-19T08:01:01;11.57;;;8.68;;
47523;SDS011;33253;42.144;25.884;2022-08-19T08:03:28;16.73;;;9.38;;
47523;SDS011;33253;42.144;25.884;2022-08-19T08:06:13;13.52;;;9.63;;
47523;SDS011;33253;42.144;25.884;2022-08-19T08:08:57;13.75;;;9.20;;
47523;SDS011;33253;42.144;25.884;2022-08-19T08:11:43;14.43;;;9.40;;
47523;SDS011;33253;42.144;25.884;2022-08-19T08:14:15;15.18;;;9.25;;
47523;SDS011;33253;42.144;25.884;2022-08-19T08:16:47;16.02;;;9.18;;
47523;SDS011;33253;42.144;25.884;2022-08-19T08:19:14;13.95;;;8.73;;
47523;SDS011;33253;42.144;25.884;2022-08-19T08:21:40;15.85;;;8.93;;
47523;SDS011;33253;42.144;25.884;2022-08-19T08:24:06;12.48;;;9.32;;
47523;SDS011;33253;42.144;25.884;2022-08-19T08:26:31;11.60;;;8.90;;
47523;SDS011;33253;42.144;25.884;2022-08-19T08:28:57;13.73;;;9.38;;
47523;SDS011;33253;42.144;25.884;2022-08-19T08:31:22;11.75;;;8.55;;
47523;SDS011;33253;42.144;25.884;2022-08-19T08:33:48;11.63;;;8.52;;
47523;SDS011;33253;42.144;25.884;2022-08-19T08:36:14;11.68;;;8.45;;
47523;SDS011;33253;42.144;25.884;2022-08-19T08:38:41;15.07;;;8.68;;
47523;SDS011;33253;42.144;25.884;2022-08-19T08:43:39;11.65;;;7.82;;
47523;SDS011;33253;42.144;25.884;2022-08-19T08:51:40;8.80;;;7.45;;
47523;SDS011;33253;42.144;25.884;2022-08-19T08:54:13;10.60;;;7.30;;
47523;SDS011;33253;42.144;25.884;2022-08-19T08:56:43;9.20;;;7.43;;
47523;SDS011;33253;42.144;25.884;2022-08-19T08:59:12;9.73;;;6.90;;
47523;SDS011;33253;42.144;25.884;2022-08-19T09:01:41;11.55;;;7.72;;
47523;SDS011;33253;42.144;25.884;2022-08-19T09:04:07;9.60;;;7.78;;
47523;SDS011;33253;42.144;25.884;2022-08-19T09:14:37;8.23;;;7.00;;
47523;SDS011;33253;42.144;25.884;2022-08-19T09:17:11;9.63;;;7.15;;
47523;SDS011;33253;42.144;25.884;2022-08-19T09:19:55;10.32;;;7.10;;
47523;SDS011;33253;42.144;25.884;2022-08-19T09:22:25;10.13;;;7.13;;
47523;SDS011;33253;42.144;25.884;2022-08-19T09:24:51;8.95;;;7.47;;
47523;SDS011;33253;42.144;25.884;2022-08-19T09:27:17;9.90;;;6.82;;
47523;SDS011;33253;42.144;25.884;2022-08-19T09:29:48;11.20;;;7.25;;
47523;SDS011;33253;42.144;25.884;2022-08-19T09:32:14;7.47;;;6.78;;
47523;SDS011;33253;42.144;25.884;2022-08-19T09:34:40;7.25;;;6.25;;
47523;SDS011;33253;42.144;25.884;2022-08-19T09:37:06;8.38;;;6.88;;
47523;SDS011;33253;42.144;25.884;2022-08-19T09:39:32;7.60;;;6.80;;
47523;SDS011;33253;42.144;25.884;2022-08-19T09:41:57;10.68;;;6.90;;
47523;SDS011;33253;42.144;25.884;2022-08-19T09:44:22;10.30;;;6.40;;
47523;SDS011;33253;42.144;25.884;2022-08-19T09:46:48;12.50;;;6.65;;
47523;SDS011;33253;42.144;25.884;2022-08-19T09:49:14;9.30;;;6.45;;
47523;SDS011;33253;42.144;25.884;2022-08-19T09:51:42;8.00;;;6.13;;
47523;SDS011;33253;42.144;25.884;2022-08-19T09:54:07;7.22;;;6.53;;
47523;SDS011;33253;42.144;25.884;2022-08-19T09:56:33;6.97;;;5.85;;
47523;SDS011;33253;42.144;25.884;2022-08-19T09:58:59;9.30;;;6.30;;
47523;SDS011;33253;42.144;25.884;2022-08-19T10:01:27;8.60;;;6.05;;
47523;SDS011;33253;42.144;25.884;2022-08-19T10:03:56;8.68;;;6.18;;
47523;SDS011;33253;42.144;25.884;2022-08-19T10:06:24;8.45;;;6.13;;
47523;SDS011;33253;42.144;25.884;2022-08-19T10:08:54;7.10;;;6.07;;
47523;SDS011;33253;42.144;25.884;2022-08-19T10:11:19;7.85;;;5.90;;
47523;SDS011;33253;42.144;25.884;2022-08-19T10:13:45;8.85;;;5.88;;
47523;SDS011;33253;42.144;25.884;2022-08-19T10:16:13;7.68;;;5.70;;
47523;SDS011;33253;42.144;25.884;2022-08-19T10:18:42;8.98;;;6.05;;
47523;SDS011;33253;42.144;25.884;2022-08-19T10:21:16;7.25;;;5.57;;
47523;SDS011;33253;42.144;25.884;2022-08-19T10:23:48;9.67;;;6.30;;
47523;SDS011;33253;42.144;25.884;2022-08-19T10:26:16;7.28;;;5.72;;
47523;SDS011;33253;42.144;25.884;2022-08-19T10:28:44;7.15;;;6.45;;
47523;SDS011;33253;42.144;25.884;2022-08-19T10:31:11;6.25;;;5.65;;
47523;SDS011;33253;42.144;25.884;2022-08-19T10:33:39;7.70;;;6.05;;
47523;SDS011;33253;42.144;25.884;2022-08-19T10:36:07;9.65;;;6.20;;
47523;SDS011;33253;42.144;25.884;2022-08-19T10:38:36;9.25;;;6.13;;
47523;SDS011;33253;42.144;25.884;2022-08-19T10:41:10;8.80;;;5.82;;
47523;SDS011;33253;42.144;25.884;2022-08-19T10:43:38;12.60;;;5.85;;
47523;SDS011;33253;42.144;25.884;2022-08-19T10:46:06;9.35;;;6.30;;
47523;SDS011;33253;42.144;25.884;2022-08-19T10:48:33;7.13;;;5.80;;
47523;SDS011;33253;42.144;25.884;2022-08-19T10:50:59;8.57;;;5.70;;
47523;SDS011;33253;42.144;25.884;2022-08-19T10:53:44;7.40;;;5.88;;
47523;SDS011;33253;42.144;25.884;2022-08-19T10:56:09;8.25;;;5.88;;
47523;SDS011;33253;42.144;25.884;2022-08-19T10:58:53;6.28;;;5.15;;
47523;SDS011;33253;42.144;25.884;2022-08-19T11:01:19;7.07;;;5.60;;
47523;SDS011;33253;42.144;25.884;2022-08-19T11:03:45;7.55;;;5.22;;
47523;SDS011;33253;42.144;25.884;2022-08-19T11:06:10;8.75;;;5.88;;
47523;SDS011;33253;42.144;25.884;2022-08-19T11:08:36;7.68;;;5.35;;
47523;SDS011;33253;42.144;25.884;2022-08-19T11:11:04;10.32;;;5.40;;
47523;SDS011;33253;42.144;25.884;2022-08-19T11:13:33;6.05;;;5.45;;
47523;SDS011;33253;42.144;25.884;2022-08-19T11:16:06;5.85;;;5.25;;
47523;SDS011;33253;42.144;25.884;2022-08-19T11:18:35;7.20;;;5.80;;
47523;SDS011;33253;42.144;25.884;2022-08-19T11:21:06;7.82;;;5.40;;
47523;SDS011;33253;42.144;25.884;2022-08-19T11:23:32;10.32;;;5.70;;
47523;SDS011;33253;42.144;25.884;2022-08-19T11:25:58;6.03;;;5.25;;
47523;SDS011;33253;42.144;25.884;2022-08-19T11:28:24;7.07;;;5.30;;
47523;SDS011;33253;42.144;25.884;2022-08-19T11:30:50;6.80;;;5.47;;
47523;SDS011;33253;42.144;25.884;2022-08-19T11:33:15;7.28;;;5.45;;
47523;SDS011;33253;42.144;25.884;2022-08-19T11:35:40;6.90;;;5.43;;
47523;SDS011;33253;42.144;25.884;2022-08-19T11:38:06;9.00;;;5.80;;
47523;SDS011;33253;42.144;25.884;2022-08-19T11:40:32;7.45;;;5.60;;
47523;SDS011;33253;42.144;25.884;2022-08-19T11:42:58;7.45;;;5.85;;
47523;SDS011;33253;42.144;25.884;2022-08-19T11:45:24;6.82;;;5.60;;
47523;SDS011;33253;42.144;25.884;2022-08-19T11:47:52;6.80;;;5.40;;
47523;SDS011;33253;42.144;25.884;2022-08-19T11:50:18;6.20;;;5.60;;
47523;SDS011;33253;42.144;25.884;2022-08-19T11:52:44;7.47;;;5.40;;
47523;SDS011;33253;42.144;25.884;2022-08-19T11:55:29;6.15;;;4.93;;
47523;SDS011;33253;42.144;25.884;2022-08-19T11:57:55;7.15;;;4.90;;
47523;SDS011;33253;42.144;25.884;2022-08-19T12:00:20;6.10;;;4.72;;
47523;SDS011;33253;42.144;25.884;2022-08-19T12:02:46;6.28;;;5.00;;
47523;SDS011;33253;42.144;25.884;2022-08-19T12:05:12;5.00;;;4.50;;
47523;SDS011;33253;42.144;25.884;2022-08-19T12:07:37;7.20;;;4.60;;
47523;SDS011;33253;42.144;25.884;2022-08-19T12:10:04;7.57;;;4.72;;
47523;SDS011;33253;42.144;25.884;2022-08-19T12:12:30;6.18;;;5.00;;
47523;SDS011;33253;42.144;25.884;2022-08-19T12:14:56;8.32;;;4.93;;
47523;SDS011;33253;42.144;25.884;2022-08-19T12:17:24;6.57;;;5.05;;
47523;SDS011;33253;42.144;25.884;2022-08-19T12:19:51;8.82;;;5.03;;
47523;SDS011;33253;42.144;25.884;2022-08-19T12:22:17;8.90;;;4.75;;
47523;SDS011;33253;42.144;25.884;2022-08-19T12:24:43;7.10;;;5.00;;
47523;SDS011;33253;42.144;25.884;2022-08-19T12:27:09;7.25;;;5.28;;
47523;SDS011;33253;42.144;25.884;2022-08-19T12:29:34;6.38;;;4.93;;
47523;SDS011;33253;42.144;25.884;2022-08-19T12:32:00;6.03;;;4.57;;
47523;SDS011;33253;42.144;25.884;2022-08-19T12:34:27;6.25;;;4.72;;
47523;SDS011;33253;42.144;25.884;2022-08-19T12:37:00;7.50;;;4.97;;
47523;SDS011;33253;42.144;25.884;2022-08-19T12:39:28;9.85;;;4.95;;
47523;SDS011;33253;42.144;25.884;2022-08-19T12:41:55;7.20;;;4.35;;
47523;SDS011;33253;42.144;25.884;2022-08-19T12:44:21;5.03;;;3.85;;
47523;SDS011;33253;42.144;25.884;2022-08-19T12:46:47;6.65;;;3.92;;
47523;SDS011;33253;42.144;25.884;2022-08-19T12:49:14;5.72;;;4.10;;
47523;SDS011;33253;42.144;25.884;2022-08-19T12:51:40;7.72;;;4.38;;
47523;SDS011;33253;42.144;25.884;2022-08-19T12:54:06;6.18;;;4.20;;
47523;SDS011;33253;42.144;25.884;2022-08-19T12:56:31;7.20;;;4.00;;
47523;SDS011;33253;42.144;25.884;2022-08-19T12:59:00;6.18;;;3.75;;
47523;SDS011;33253;42.144;25.884;2022-08-19T13:01:27;5.63;;;3.70;;
47523;SDS011;33253;42.144;25.884;2022-08-19T13:03:57;6.45;;;4.05;;
47523;SDS011;33253;42.144;25.884;2022-08-19T13:06:23;4.85;;;3.53;;
47523;SDS011;33253;42.144;25.884;2022-08-19T13:08:49;4.53;;;3.72;;
47523;SDS011;33253;42.144;25.884;2022-08-19T13:11:15;6.03;;;3.83;;
47523;SDS011;33253;42.144;25.884;2022-08-19T13:13:43;4.80;;;3.63;;
47523;SDS011;33253;42.144;25.884;2022-08-19T13:16:11;6.65;;;3.67;;
47523;SDS011;33253;42.144;25.884;2022-08-19T13:18:38;5.15;;;4.03;;
47523;SDS011;33253;42.144;25.884;2022-08-19T13:21:05;6.35;;;3.92;;
47523;SDS011;33253;42.144;25.884;2022-08-19T13:23:33;6.43;;;4.28;;
47523;SDS011;33253;42.144;25.884;2022-08-19T13:26:01;6.45;;;4.18;;
47523;SDS011;33253;42.144;25.884;2022-08-19T13:28:28;7.90;;;4.40;;
47523;SDS011;33253;42.144;25.884;2022-08-19T13:31:15;6.15;;;4.70;;
47523;SDS011;33253;42.144;25.884;2022-08-19T13:34:00;6.80;;;3.92;;
47523;SDS011;33253;42.144;25.884;2022-08-19T13:36:25;9.95;;;4.40;;
47523;SDS011;33253;42.144;25.884;2022-08-19T13:38:51;9.52;;;4.40;;
47523;SDS011;33253;42.144;25.884;2022-08-19T13:41:16;9.20;;;4.00;;
47523;SDS011;33253;42.144;25.884;2022-08-19T13:43:44;6.53;;;4.03;;
47523;SDS011;33253;42.144;25.884;2022-08-19T13:46:10;9.15;;;3.95;;
47523;SDS011;33253;42.144;25.884;2022-08-19T13:48:38;4.75;;;3.63;;
47523;SDS011;33253;42.144;25.884;2022-08-19T13:51:05;8.20;;;4.00;;
47523;SDS011;33253;42.144;25.884;2022-08-19T13:53:34;7.10;;;4.15;;
47523;SDS011;33253;42.144;25.884;2022-08-19T13:56:06;5.22;;;4.10;;
47523;SDS011;33253;42.144;25.884;2022-08-19T13:58:35;4.85;;;3.78;;
47523;SDS011;33253;42.144;25.884;2022-08-19T14:01:02;6.88;;;4.10;;
47523;SDS011;33253;42.144;25.884;2022-08-19T14:03:30;5.77;;;3.90;;
47523;SDS011;33253;42.144;25.884;2022-08-19T14:05:56;6.35;;;4.03;;
47523;SDS011;33253;42.144;25.884;2022-08-19T14:08:22;4.80;;;3.70;;
47523;SDS011;33253;42.144;25.884;2022-08-19T14:10:48;5.88;;;4.18;;
47523;SDS011;33253;42.144;25.884;2022-08-19T14:13:15;4.93;;;3.78;;
47523;SDS011;33253;42.144;25.884;2022-08-19T14:15:44;4.88;;;3.88;;
47523;SDS011;33253;42.144;25.884;2022-08-19T14:18:10;7.65;;;4.00;;
47523;SDS011;33253;42.144;25.884;2022-08-19T14:20:37;5.80;;;3.80;;
47523;SDS011;33253;42.144;25.884;2022-08-19T14:23:02;6.20;;;3.95;;
47523;SDS011;33253;42.144;25.884;2022-08-19T14:25:30;6.10;;;3.80;;
47523;SDS011;33253;42.144;25.884;2022-08-19T14:27:56;8.85;;;4.10;;
47523;SDS011;33253;42.144;25.884;2022-08-19T14:30:27;8.90;;;4.32;;
47523;SDS011;33253;42.144;25.884;2022-08-19T14:32:58;7.03;;;4.28;;
47523;SDS011;33253;42.144;25.884;2022-08-19T14:35:26;9.82;;;4.20;;
47523;SDS011;33253;42.144;25.884;2022-08-19T14:37:52;5.85;;;4.18;;
47523;SDS011;33253;42.144;25.884;2022-08-19T14:40:23;5.75;;;4.15;;
47523;SDS011;33253;42.144;25.884;2022-08-19T14:45:20;6.75;;;4.00;;
47523;SDS011;33253;42.144;25.884;2022-08-19T14:47:46;5.47;;;4.03;;